BoredJedi's sites:

title views votes rating creation
?Odds & Ends 140 3 (3.00)  2018-04-28
?Jesus Has A Message For You All 139 3 (3.67)  2018-04-10
?Stephanie Writes Darkly 135 4 (3.00)  2018-04-01
?She Comes In Colors 119 3 (2.33)  2018-04-01
?Ultimate Major Robbie 147 4 (3.75)  2018-03-14
?The Hands Of Stephanie 233 9 (3.33)  2018-03-11
?Space Race 810 20 (3.80)  2018-02-11
?Prescription Required 126 5 (3.00)  2018-02-03
?Today I'm a Screever 118 4 (2.50)  2018-02-01
?No Place Like Home 166 5 (2.60)  2018-01-11
?R.I.P John Hurt 237 5 (2.40)  2017-01-27
?Bacta the future 262 5 (3.80)  2016-12-07
?To Ytmnd 496 6 (4.33)  2016-09-12
?Thank You Max 789 16 (4.38)  2016-09-01
?A New Hope 794 27 (4.67)  2016-07-27
?I Only Wanted Power Converters From Tosche St... 288 4 (4.00)  2016-06-04
?The Domino Effect 1,223 24 (4.38)  2016-04-24
?Poison Apple 544 6 (4.33)  2016-03-27
?BoredJedi Leaves YTMND 1,223 17 (4.41)  2016-03-17
?Join Forces 386 8 (3.38)  2016-02-17
?The Little Dictator 354 3 (3.67)  2016-01-28
?David Robert Jones 444 3 (3.67)  2016-01-11
?4th Dimension 1,459 16 (4.31)  2016-01-02
?End Of Times 1,617 27 (4.00)  2015-12-18
?Stephanie: Session 1 347 6 (3.00)  2015-11-11
?I'm Only Human 1,103 13 (4.23)  2015-10-16
?Wouldn't It Be Good 246 3 (3.33)  2015-09-17
?YTMND's Wayback Machine 1,747 24 (4.42)  2015-08-22
?It's Curtains For You 5,358 46 (4.52)  2015-08-07
?Steph on the Wing 593 15 (3.20)  2015-08-01
?Simply Stephanie 1,434 28 (3.68)  2015-05-10
? 1,631 36 (4.25)  2015-04-19
?You're The Shark Now Dog 1,885 33 (3.97)  2015-03-31
?2020 Vision 3,375 52 (4.46)  2015-03-28
?What Happens On Naboo Doesn't Stay On ... 5,016 41 (4.29)  2015-03-08
?By The Numbers 1,563 31 (4.23)  2015-03-01
?Black and White 1,335 24 (3.29)  2015-01-20
?YTwistMND 499 22 (3.18)  2014-12-10
?Edge Of Forever 1,348 38 (3.92)  2014-11-23
?Who are You Stephanie 1,182 25 (3.64)  2014-11-02
?Safety Dance Not Guaranteed 8,905 73 (4.51)  2014-10-15
?HYPNOTIC 2,864 50 (4.18)  2014-10-04
?Mysteries of the Steph: Birth of a Jedi 1,331 36 (3.81)  2014-09-04
?Mysteries Of The Steph 468 13 (2.77)  2014-07-28
?Blame Me! It's All My Vault! 1,475 37 (3.57)  2014-06-16
?Fallout Stephanie 4,966 60 (4.00)  2014-06-01
?Morbius Discovers 2,363 35 (3.80)  2014-05-25
?Talking Man To Man With Max About Bugs and Fe... 46,423 69 (3.81)  2014-04-12
?Stephysium 1,297 25 (3.44)  2014-04-03
?Doin' the Stephtusi 995 21 (3.38)  2014-03-23
?10th Anniversary 614 20 (3.60)  2013-12-01
?Apple Juice Concentrate 1,483 44 (4.07)  2013-11-28
?Cloudy With A Chance Of Stephanie 821 21 (2.90)  2013-09-08
?Eh Eh Eh Eh Eh Ah Ah Ah Ah Ah Na Na Na Na ... 2,537 47 (4.09)  2013-08-18
?Sines Of Stephanie 850 15 (3.67)  2013-06-23
?The Finger Of Stephanie 6,967 73 (4.08)  2013-05-27
?In The Fad Part 2 524 8 (3.38)  2013-04-25
?(nsfw) Timaeus Tribute 973 13 (3.62)  2013-04-07
?Stephanie Remembers The Last Day She Came 776 19 (3.89)  2013-04-02
?Moon Runes 1,719 52 (3.73)  2013-03-21
?Introducing The Stephs 1,275 30 (3.47)  2013-02-16
?You Are A Jedi 2,399 51 (3.86)  2012-11-11
?Stephanie Belongs Here 859 22 (3.05)  2012-11-04
?A Cyclone Appears 950 10 (3.50)  2012-10-28
?Stephanie Airhead™ 889 14 (3.43)  2012-10-27
?The Great Debate 2012 (ytmndam style) 7,433 117 (4.14)  2012-10-16
?Morpheus Finds The Truth 544 10 (3.20)  2012-08-25
?Feel Good Tuesdays 7,163 69 (3.86)  2012-07-17
?Bedtime Stories 767 10 (3.10)  2012-06-07
?Stephanie use to dance until....... 905 9 (3.00)  2011-12-31
?I Slooshied 10,089 75 (3.67)  2011-10-16
?Boredjedi and Stephanie 9,395 152 (4.06)  2011-10-02
?The King Is Dead 778 8 (2.13)  2011-08-20
?Ice Sculpture 1,195 16 (2.88)  2011-08-06
?Stephanie and the Firecat 1,161 10 (3.10)  2011-07-30
?Wheelchair Girl Chases Stephen Hawkings Chase... 994 10 (3.60)  2011-07-15
?Wheelchair Girl Chases Stephen Hawkings Chases... 752 10 (3.10)  2011-07-15
?I wanna be a Cheerleader 1,052 7 (3.00)  2011-07-14
?Ultimate Question of Life, the Universe and Everythi... 672 10 (2.70)  2011-07-12
?Invasion Birthday (punch the reload) 1,321 15 (3.53)  2011-07-11
?The First Girl On The Moon Man 2,918 56 (3.91)  2011-07-04
?Plate Tectonics 5,255 70 (4.13)  2011-06-25
?The Gods Are Baked 964 9 (3.44)  2011-06-22
?I Love Apples 2,455 10 (3.00)  2011-06-13
?To Old Friends Long Gone 2,342 50 (3.82)  2011-06-10
?Toss It Up 751 6 (3.67)  2011-03-27
?Server Crash Secrets Revealed 1,763 12 (3.67)  2011-03-13
?Where's Your AT-AT 1,889 21 (3.81)  2011-03-05
?Lou Diamond Almonds 902 11 (3.91)  2011-02-25
?A RAY OF LIGHT in a world gone mad 1,316 7 (3.14)  2010-11-25
?IN YOUR HEADS! 1,224 15 (3.60)  2010-11-13
?Good For One Admission 3,238 13 (4.00)  2010-11-08
?Pre surgical consent 3,288 10 (3.80)  2010-09-16
?Slap Happy 2,690 11 (4.00)  2010-09-01
?Do Androids Dream Electric Cake? 1,770 24 (3.88)  2010-08-06
?110 ºF11 1,682 40 (4.30)  2010-07-18
?At World's End 10,038 112 (4.07)  2010-07-05
?Tarot Cake 5,380 51 (4.02)  2010-06-17
?cluckTMND: Azn steph loves chicken 7,409 75 (4.03)  2010-05-30
?Stephanie 19 14,665 126 (4.08)  2010-05-26
?Farewell To Cake 10,109 196 (4.27)  2010-03-22
?Great Gasp In The Sky 1,458 21 (3.76)  2010-03-17
?Art Thou Face Palm 1,779 25 (3.64)  2010-03-15
?LV-426 896 10 (4.00)  2010-03-13
?Cake V 2,194 62 (3.87)  2010-03-11
?Decade Of Decadence 1,330 30 (4.07)  2010-01-02
?GOOD KNIGHT SWEET PRINCE 757 6 (3.00)  2009-12-30
?Not Even Lysol Can Save You 931 11 (3.27)  2009-11-21
?Extreme Radiation (Warning!) 2,245 41 (3.90)  2009-11-08
?Riker Skies (F11 edition) 6,134 129 (4.09)  2009-10-27
?In The Fad 12,968 325 (4.52)  2009-09-24
?Dawn Of Monotheism © 1,185 24 (3.92)  2009-09-16
?Ritual I'z 778 22 (4.09)  2009-09-12
?05h 35m 17.3s / 1,344±20 ly 846 20 (4.10)  2009-09-05
?I'll just put this here then 1,007 19 (3.95)  2009-09-04
?Worm Head 1,290 20 (4.10)  2009-09-03
?Worms ate into her brain 3,290 84 (3.95)  2009-08-30
?Renaissance Shenanigans 3,027 61 (3.97)  2009-08-26
?Bricks 5,668 165 (4.13)  2009-08-21
?Element 602 2,390 16 (3.81)  2009-06-09
?Oysters 966 21 (3.76)  2009-06-04
?The 18 Light Year Blues 3,139 36 (3.94)  2009-06-03
?18 light years ago 19,432 282 (4.25)  2009-05-25
?Mythology II 14,949 311 (4.46)  2009-05-21
?Mythology 10,399 243 (4.42)  2009-05-11
?Orange Surprise 2,656 66 (4.27)  2009-05-02
?Power of the Kraken! 542 9 (3.78)  2009-04-29
?yTEEmnd: LANDOGOTSNOBALLS 1,509 36 (4.11)  2009-04-15
?YTMND T-SHIRT ENTRY BY BOREDJEDI AGE 9... 740 20 (3.60)  2009-04-02
?YTMND T-SHIRT ENTRY BY BOREDJEDI AGE 9... 1,594 107 (3.68)  2009-03-31
?YTMND T-SHIRT ENTRY BY BOREDJEDI AGE 9... 1,966 58 (3.62)  2009-03-28
?A Figure In Black 1,967 31 (3.94)  2009-03-25
?Something Something Something (nothing) 654 19 (3.68)  2009-03-23
?HORSWARZ: Punch the Cabbage 3,133 125 (3.95)  2009-03-19
?White men can tongue dance 2,883 38 (3.89)  2009-03-15
?Cheesy Domain Stolen 2,870 20 (3.65)  2009-03-12
?Joys of Unicycle 2,821 37 (3.95)  2009-03-07
?Twenty Twelve: California 1,484 44 (3.84)  2009-02-26
?2012: Ominous Land Mass Discovered 781 9 (3.44)  2009-02-26
?Emulation Doesn't Work! 3,269 45 (4.02)  2009-02-24
?Luke is starving 1,692 69 (3.96)  2009-02-13
?Hey Lando! Whatchya got there!? 1,688 20 (3.95)  2009-02-12
?Super Cheetos 5,579 28 (3.89)  2009-02-10
?Phonograph Not Included 943 18 (4.00)  2009-02-07
?Fad Foods 1,617 39 (4.08)  2009-01-30
?Global Warming > Solitude 1,280 27 (3.81)  2009-01-25
?3 Feet Long (retacked) 2,797 28 (3.79)  2009-01-23
?3 Feet Long (reduct) 5,248 87 (3.86)  2009-01-21
?3 Feet Long 789 13 (3.15)  2009-01-21
?Dear Santa <3 3,182 17 (3.82)  2008-12-21
?Midnight Special 1,294 15 (3.47)  2008-11-23
?Pink isn't well she stayed back at the hotel 2,271 50 (3.82)  2008-11-14
?PASTMND: Way back in 2012 770 11 (3.45)  2008-11-06
?Universal Remote 3,210 80 (3.98)  2008-11-02
?Once In A Lullaby 3,636 22 (3.73)  2008-11-01
?Quantum Sleep 2,776 52 (3.87)  2008-10-22
?Between Friends 613 30 (3.40)  2008-10-17
?And to the Republic 797 19 (4.00)  2008-10-12
?National Debt (divide by zero economics) 1,396 17 (3.65)  2008-09-28
?The Empire Doesn't Stand a Chance 2,251 85 (3.79)  2008-09-08
?Fourteen nights a week 966 14 (3.43)  2008-09-03
?Stealing your gold 2,834 65 (3.85)  2008-08-21
?Death after ytmnd 3,880 173 (3.99)  2008-08-19
?Fad Chases Itself 3,027 27 (3.93)  2008-08-17
?Signed, Yours Truly 3,169 29 (4.03)  2008-08-16
?YTMND CORE BREACH 10,579 240 (4.21)  2008-08-12
?Thank You Thank You Thank You Thank You! 1,101 33 (4.00)  2008-08-09
?Sight, Cite, Site 293 10 (3.10)  2008-08-06
?Fire in the Hole 1,675 10 (3.30)  2008-08-01
?The best years of MoNeY-hAT (compressed for ti... 2,955 82 (4.06)  2008-07-30
?Insomniacs Guild Apply Within 1,664 52 (3.90)  2008-07-30
?Green Thumb 3,832 63 (3.90)  2008-07-29
?A StEpH By sTePh tUtOrIaL 1,435 14 (3.36)  2008-07-27
?LiL Wayne Steph by Steph 3,295 27 (4.22)  2008-07-26
?><(({°> ><(({°> ><(... 1,678 32 (3.81)  2008-07-19
?The past stares into your soul 1,259 20 (3.55)  2008-07-13
?Emily doesn't play here anymore 6,771 96 (4.04)  2008-07-09
?Immoral Minority 976 11 (3.82)  2008-07-02
?Lesson #10: The Feet 3,547 32 (4.06)  2008-06-15
?Saturday Night's Alright 437 8 (2.75)  2008-05-10
?Spin Cyles 709 15 (3.60)  2008-05-05
?²²²²²²²&... 2,599 130 (3.92)  2008-05-03
?Matter * (Space + Distance) = Stop Motion 653 8 (3.50)  2008-04-27
?HuminahuminahumImhotep 3,392 58 (3.86)  2008-04-24
?YTMNDruish 701 17 (3.65)  2008-04-22
?The Carbonite Maneuver 1,457 38 (3.71)  2008-04-20
?David Bowie stares into your soul 1,311 9 (3.33)  2008-04-19
?Pursuit of Man 431 8 (2.75)  2008-04-18
?A Universe With 1,443 28 (4.14)  2008-04-18
?This Fad Sponsored by.................... 389 3 (3.00)  2008-04-15
?Royaly Screwed 714 11 (4.00)  2008-04-15
?Tora Tora Tora! 859 13 (3.62)  2008-04-14
?Boogie Woogie Bugle Girl of Company C 2,444 86 (4.03)  2008-04-13
?Catastrophy 450 6 (3.17)  2008-04-12
?Parrot Stole My Thumb 454 14 (3.71)  2008-04-12
?Parrot Stole My Thumb 704 16 (3.63)  2008-04-12
?Parrot Stole My Thumb 603 18 (3.83)  2008-04-12
?Parrot Stole My Thumb 616 11 (3.18)  2008-04-12
?Masters of Guitar Hero 1,385 22 (3.55)  2008-04-10
?Scent of a Jedi 2,399 64 (3.91)  2008-04-09
?Reflections of Ourselves 1,001 24 (3.79)  2008-04-06
?Morphine Lips 807 32 (3.69)  2008-04-06
?Balls Can't Lose 1,822 71 (3.79)  2008-04-03
?SMTMND 478 7 (3.71)  2008-04-02
?Irish Lincoln plays a trick on you 572 11 (3.00)  2008-03-31
?This Site Will Self Destruct in 5 Seconds 955 12 (3.25)  2008-03-29
?Asian Stephanie Strikes Back 1,334 16 (3.06)  2008-03-27
?The Site With No Name 940 14 (3.50)  2008-03-16
?Twisted Fables 2,045 33 (3.82)  2008-03-11
?Something wicked this way comes 7,848 236 (4.06)  2008-03-08
?Saddle Sore 1,096 18 (3.56)  2008-03-05
?In theory it sounded good 924 15 (3.40)  2008-03-05
?Where's your mod now! 615 22 (3.45)  2008-03-04
?The Future is Pink 1,289 24 (3.58)  2008-03-02
?Candy Pop 1,023 13 (3.46)  2008-03-01
?Sportaclub Now Open For Business 9,630 318 (4.04)  2008-02-27
?3 Inches of Pink 1,343 24 (3.46)  2008-02-24
?He plays a mean pirate 1,255 16 (3.56)  2008-02-24
?3 inches of road kill 671 14 (3.21)  2008-02-22
?Infinity to the Infinity to the Infinity 448 7 (3.57)  2008-02-22
?It's an Uphill Climb 642 5 (3.00)  2008-02-15
?Now that Valentymnd is over..... 558 9 (3.11)  2008-02-15
?Valentymnd: Deuces Wild 447 12 (2.92)  2008-02-14
?Glow in the Darkness 2,344 112 (3.94)  2008-02-13
?Are we there yet? 777 40 (3.78)  2008-02-09
?A Little Yogurt Never Hurt Anyone 514 6 (3.00)  2008-02-08
?Brown Paper Bag has eyes 586 14 (3.29)  2008-02-08
?He'll make point five past lightspeed 669 12 (3.17)  2008-02-04
?Valentymnd: The eyes have it 834 8 (3.75)  2008-02-02
?What comes around goes around and around and ... 744 13 (3.46)  2008-02-02
?Vader comes out of the dome 505 9 (3.56)  2008-01-26
?Star Wars IV (How Pretty Luke Becomes Ugly Lu... 2,569 28 (3.93)  2008-01-24
?Cinema 3,249 177 (4.01)  2008-01-24
?I won't deny it! My previous site has..... 416 13 (3.31)  2008-01-23
?I won't deny it! This site is gunna.... 1,061 32 (3.81)  2008-01-23
?0° Temperature Buster 1,202 13 (3.62)  2008-01-22
?24 Hours of French Drumming 1,442 51 (3.92)  2008-01-10
?24 Hours of Extra Cruelty 746 8 (3.25)  2008-01-10
?24 Hours Of Daydreams 803 7 (3.43)  2008-01-10
?24 Hours of ¥ Barfolemew 1,194 32 (3.78)  2008-01-09
?24 Hours Of 12 1,241 37 (3.65)  2008-01-09
?24 Hours of Uninhibited Plaidlight 919 23 (4.04)  2008-01-08
?24 Hours of ¥ Plaidlight 2,173 112 (3.85)  2008-01-08
?Seagull 334 6 (3.00)  2008-01-08
?Let's Blow This Town 2,703 17 (3.82)  2008-01-07
?40,000 update 466 8 (4.00)  2008-01-05
?BTape's New Year Message 844 25 (3.72)  2008-01-03
?Girls Can't Fly 1,971 41 (4.05)  2007-12-30
?Bookmark This Page 593 27 (3.59)  2007-12-30
?Leave BTape aloan. 460 20 (3.65)  2007-12-29
?I am BTape's Worm 739 11 (3.45)  2007-12-29
?Panty Raid! 1,194 12 (3.58)  2007-12-22
?You Can't Handle The Truth! 1,364 17 (4.12)  2007-12-20
?(nsfw) Postal Dude > Duke Nukem 1,593 11 (2.91)  2007-12-20
?Postal Dude > Duke Nukem 711 9 (3.11)  2007-12-20
?Postal Dude > Duke Nukem 938 8 (2.75)  2007-12-20
? Lazytown 15th Audition (Search for a new Stepha... 4,859 54 (4.09)  2007-12-19
?Khanduit 883 24 (3.79)  2007-12-18
? Lazytown 14th Audition (Search for a new Stepha... 1,850 35 (3.94)  2007-12-16
?Lazytown 9th Audition (Search for a new Stephanie... 3,761 141 (3.91)  2007-12-15
?Lazytown 7th Audition (Search for a new Stephanie... 1,555 43 (3.84)  2007-12-14
?Lazytown 5th Audition (Search for a new Stephanie... 1,616 40 (3.53)  2007-12-14
?Lazytown 4th Audition (Search for a new Stephanie... 1,868 45 (3.71)  2007-12-14
?Lazytown 3rd Audition (Search for a new Stephani... 1,727 50 (3.70)  2007-12-14
?Robbie Rotten Finds Peace 623 9 (3.56)  2007-12-13
?Lazytown 2nd Audition (Search for a new Stephani... 2,827 53 (3.98)  2007-12-12
?Lazytown Auditions (Search for a new Stephanie) 3,947 68 (3.78)  2007-12-12
?Lazytown Outtakes (rawr footage) 2,702 47 (3.94)  2007-12-11
?Ultimate Showdown 803 22 (3.55)  2007-12-08
?heelEum 1,003 23 (3.74)  2007-12-07
? /\/\/\/\/\/\/\/\/\/\/\/\/\/\/\/\/\/\/\/\/\/\/\/\/\/\/\/\/\/\/\/\/\/\... 16,169 477 (4.14)  2007-12-06
?I stare into your soul! 497 8 (3.25)  2007-12-04
?Even The 360 clock says.............. 321 6 (2.33)  2007-12-03
?Extortion Plot Revealed! 710 20 (3.65)  2007-12-01
?Dancing Balls (It's Happening Now!) 30,231 685 (4.35)  2007-11-30
?Waxing Nostalgia 1,371 16 (3.75)  2007-11-29
?Special Edition YTMND Christmas Cards (get yours... 1,462 49 (3.94)  2007-11-25
?I Am Experienced 1,063 16 (3.69)  2007-11-22
?Now this is just madness I tell you! Madness! 658 10 (2.40)  2007-11-16
? A Wholesome Rave 1,603 29 (3.86)  2007-11-16
?This Week it's all about 923 14 (3.50)  2007-11-15
?Rotten Carrot 1,685 11 (3.73)  2007-11-15
?Sometimes, a carrot is just a carrot (double dutch c... 1,584 34 (3.71)  2007-11-14
?Evil Spirit Alarm! 917 35 (3.66)  2007-11-13
?Sometimes, a carrot is just a carrot 2,148 55 (3.85)  2007-11-11
?Sometimes, happiness is just.......... 967 33 (3.70)  2007-11-11
?UK Live 981 25 (3.60)  2007-11-06
?IV XX 987 28 (3.50)  2007-11-04
?Alien Abuse™ 1,278 21 (3.67)  2007-11-03
?Super Secret Late Night Message©® 1,051 10 (3.40)  2007-11-02
?Again and Again and Again™ 6,242 167 (3.98)  2007-10-29
?Another Night With Danson 998 38 (3.76)  2007-10-28
?A Night With Danson 515 5 (2.60)  2007-10-28
?Feel Like Danson 1,721 106 (3.81)  2007-10-24
?Ghost Town™ 841 16 (3.63)  2007-10-23
?Sith With A Smile ©®™ 6,328 216 (3.94)  2007-10-21
?Can't go home 1,338 23 (3.91)  2007-10-18
?Somewhere out there 1,429 27 (3.78)  2007-10-16
?40 YEARS AGO 1,563 48 (3.67)  2007-10-13
?lovethyconan not lt4 50% more psychedelica 3,322 15 (3.93)  2007-10-12
?Ziggy is on fyre! 763 15 (3.33)  2007-10-11
?ZIGGY!!!! 1,697 65 (3.72)  2007-10-10
?.iceland heaven. 1,351 13 (3.31)  2007-10-10
?One Star's Anthem 660 11 (2.27)  2007-10-09
?Coming out for the Holidays 1,452 39 (3.74)  2007-10-08
?Mosura ya Mosura 1,527 28 (3.71)  2007-10-06
?FEAR CONFERENCE 1,212 28 (3.61)  2007-10-05
?Watchyagunnado now Stephanie 1,756 49 (3.73)  2007-10-04
?What V.S. Who!? (omg! Faints!) 1,562 53 (3.75)  2007-10-02
?Danger Rave 2,358 24 (3.33)  2007-10-02
?Welcome To Dirtytown 932 16 (3.25)  2007-09-30
?PFTMND - Sheep 712 21 (3.62)  2007-09-28
?ChemKneazle, Ace Of Chemistry 782 17 (3.18)  2007-09-27
?This Time Will Come 1,382 23 (3.70)  2007-09-27
?Emerson, Lake and............................... 970 14 (3.43)  2007-09-26
?What if Sportacus was Swiss 1,091 21 (3.24)  2007-09-25
?If you leave now, the Emperor will have already w... 1,072 17 (3.12)  2007-09-24
?Atlas Who? 1,641 16 (3.94)  2007-09-23
?Bring it on Stephanie! Bring it on! 3,772 47 (3.96)  2007-09-22
?Taze Zonday 2,423 47 (3.60)  2007-09-21
?For ChemKneazle and lazytown4 828 14 (3.50)  2007-09-10
?Stephanie, keeps her appearance. 5,284 70 (4.04)  2007-09-08
?Lazytown Hormones Aren't Lazy 2,697 29 (4.03)  2007-09-07
?The Bee Cat 532 19 (2.95)  2007-09-05
?What's Your Sign? 613 7 (3.29)  2007-09-04
?Fallen Bridge or Something Else 993 27 (3.48)  2007-08-01
?Interludes After Midnight III 3,815 22 (4.09)  2007-06-25
?Darth Vader Opus 945 14 (3.14)  2007-06-24
?Interludes After Midnight 1,039 19 (3.58)  2007-06-24
?Interludes After Midnight 3,052 118 (3.84)  2007-06-23
?Stephanie, it's okay 3,448 32 (3.66)  2007-06-15
?TheManWithNoFace EDIT 629 13 (3.15)  2007-06-13
?It's Good To Be Back :p 717 18 (3.28)  2007-06-12
?It's Official 1,306 59 (3.53)  2007-06-05
?Juliana and company V. 2 1,300 25 (3.40)  2007-06-04
?Juliana has a message 1,021 14 (3.64)  2007-06-04
?Juliana and company 1,393 22 (3.50)  2007-06-03
?Can't Sleep At Night 1,823 64 (3.77)  2007-06-03
?Kirk and Scotty's Plunder 2,416 19 (3.47)  2007-06-02
?SlitherYtmnd 497 10 (3.00)  2007-06-01
?Running Through My Head 1,336 27 (3.56)  2007-05-31
?Continuum Secrets Revealed 2,427 72 (3.83)  2007-05-28
?Pirates Bay 16,140 326 (3.95)  2007-05-27
?Stephanie Post Cake Day 8,554 61 (4.16)  2007-05-25
?Stephanie's Cake Day 6,770 134 (3.90)  2007-05-25
?Lazytown Prophecy 2,095 37 (3.92)  2007-05-24
?(nsfw) Vote 5 for Blow Job 7,433 168 (3.90)  2007-05-20
?Anatmnd 101 953 9 (3.11)  2007-05-20
?Conscious 709 15 (3.33)  2007-05-18
?The End of Sportacus?! 1,476 27 (3.70)  2007-05-15
?Tubby Skeet 1,473 21 (3.76)  2007-05-13
?Happy Sinko de Mayo 398 10 (3.20)  2007-05-05
?To Infinity and Beyond 906 16 (3.50)  2007-04-28
?Bait and Tackle 539 7 (3.14)  2007-04-24
?The last thing you will ever see 3,163 14 (3.50)  2007-04-18
?[EPIC] Forum Maneuver 9,581 9 (1.44)  2007-04-09
?(nsfw) Down Voters Beware 827 7 (3.29)  2007-04-02
?(nsfw) But I Poop From There Infestation 8,162 39 (3.95)  2007-04-02
?MGM Pictures Presents............ 1,390 13 (3.69)  2007-03-31
?No Laughing Matter (sound Fix) 656 13 (3.00)  2007-03-09
?The Sound Of Inevitability 709 16 (3.19)  2007-03-02
?No Pizza Tonight 696 13 (3.38)  2007-03-01
?Stephanie Ace of Cakes 3,246 23 (3.87)  2007-02-26
?Stephanie Magic 4,545 25 (3.88)  2007-02-24
?Stephanie Teaches 2,841 22 (4.05)  2007-02-24
?LazyTown: Big Bang war 1,809 16 (3.81)  2007-02-23
?LazyTown has lost 3,212 54 (3.72)  2007-02-22
?it's hypnotizing 588 12 (3.50)  2007-02-21
?Is there life on mars? 1,180 21 (3.52)  2007-02-17
?Deckard sees the future 1,500 31 (4.03)  2007-02-16
?Stephanie Lives 8,210 42 (4.19)  2007-02-14
?Little Kid Listens to YTMND 565 6 (3.00)  2007-02-13
?Beakman doesn't change facial expressions 2,197 14 (3.93)  2007-02-13
?*Proof* Anna Nicole Smith is dead 5,321 72 (4.42)  2007-02-10
?catAtonic 920 7 (3.86)  2007-02-09
?Anna Nicole Smith has urned this 1,643 17 (3.53)  2007-02-08
?Smith of Bel-air 465 7 (2.86)  2007-02-08
?Stephanie down under 4,266 19 (3.95)  2007-02-06
?Bowie discovers Stephanie's Underwear 1,710 22 (3.36)  2007-02-05
?Bowie discovers Stephanie 3,704 35 (3.97)  2007-02-05
?Stephanie done broke his heart 1,455 22 (3.86)  2007-02-04
?Sportacus is behind Stephanie because 5,567 32 (3.97)  2007-02-01
?LazyTown sex ed 101 4,356 18 (3.50)  2007-01-30
?YTMND the commercial (fixed) 829 15 (3.33)  2007-01-29
?YTMNDThe Commercial 955 7 (2.71)  2007-01-28
?A New Fad 617 8 (3.00)  2007-01-25
?Tribute: Stephanie Apple Jazzed Evening (redo) 2,563 20 (3.85)  2007-01-24
?Tribute: Stephanie Apple Jazzed Evening 1,150 12 (3.08)  2007-01-24
?Secret Nazi Cubicle Circa '84 595 11 (3.00)  2007-01-23
?Professionalism 563 6 (3.00)  2007-01-19
?Stephanie R.I.P. 1,029 12 (2.67)  2007-01-18
?House Has But One Lust 1,501 16 (3.44)  2007-01-15
?Exotic Dancers 572 11 (2.91)  2006-12-06
?(nsfw) Lazytown Up and Coming 1,837 9 (2.56)  2006-12-05
?A Good Place For Downvoters 581 11 (3.09)  2006-11-06
?Is anyone really ready for the 80's 826 19 (3.58)  2006-10-23
?Divorce a Hawking 779 11 (3.00)  2006-10-20
?You are not anonymous 939 14 (3.21)  2006-10-19
?iPod Has One Weakness 2,536 21 (2.81)  2006-10-19
?Downvoters have one weapon 743 25 (2.96)  2006-10-08
?Sit on her face. I dare ya. 2,599 21 (4.00)  2006-10-07
?They're Everywhere 776 20 (3.80)  2006-10-04
?Just a bit 'o fun 563 4 (2.50)  2006-09-30
?Earth Has A New Threat 943 26 (3.38)  2006-09-29
?You Touch My Tralala - Soccer Version 1,056 13 (3.08)  2006-09-23
?History of YTMND 603 13 (2.31)  2006-09-18
?She's got a nice pair 639 13 (3.46)  2006-09-18
?I'm So Hungry I could........... 4,962 110 (3.60)  2006-09-16
?Brian Peppers Sept 26th 1/2 2,399 18 (3.44)  2006-09-15
?PenisPai 866 28 (3.36)  2006-09-09
?Downvoters Revealed 764 21 (3.19)  2006-09-09
?Ultimate Horror Part 2 957 28 (3.64)  2006-09-08
?Hitler Reborn 722 17 (2.94)  2006-09-06
?Steve Irwin Rocks 949 23 (2.35)  2006-09-05
?Hasselhoff: ualuealuealeuala 4,940 62 (3.61)  2006-08-28